Thompson Beach, New Jersey
Current Conditions -  °F | °C
As of 2:54 PM on Monday 22 Dec 2014 (Local Time) from KMIV Reporting Station
Overcast Overcast  
Wind Chill: 40°   Ceiling: 11000
Heat Index: 44°   Visibility: 10mi
Dew Point: 37°   Wind: 8mph
Humidity: 76%   Direction: 60°ENE
Pressure: 30.18"   Gusts: NA
Location:  39.2484°N, 74.9941°W
Report Text: KMIV 221954Z AUTO 06007KT 10SM FEW070 OVC110 07/03 A3018 RMK AO2 RAE08B28E45 SLP220 P0000 T00670028
Loading
Personal Weather Stations






























Interactive Weather Map New forecast layout! Learn more

10-Day Weather Forecast

Advertisements
Track Severe Weather on mobile